Time;durP1;ratioP1;P1;durP2;ratioP2;P2;SDS_P1;SDS_P2;PMS_P1;PMS_P2;Temp;Humidity;BMP_temperature;BMP_pressure;BME280_temperature;BME280_humidity;BME280_pressure;Samples;Min_cycle;Max_cycle;Signal;HPM_P1;HPM_P2
2023/01/30 00:00:58;;;;;;;14.50;2.83;;;;;;;7.39;100.00;101227.97;6071746;23;20011;-94
2023/01/30 00:03:24;;;;;;;17.77;2.88;;;;;;;7.20;100.00;101226.00;6071833;23;20006;-95
2023/01/30 00:05:50;;;;;;;8.93;1.80;;;;;;;7.34;100.00;101248.69;6071903;23;20030;-94
2023/01/30 00:08:16;;;;;;;15.45;3.20;;;;;;;7.20;100.00;101231.13;6014415;23;20054;-95
2023/01/30 00:10:42;;;;;;;17.90;2.40;;;;;;;7.33;100.00;101235.88;6071944;23;20007;-95
2023/01/30 00:13:08;;;;;;;12.65;2.20;;;;;;;7.39;100.00;101221.13;6071750;23;20033;-94
2023/01/30 00:15:33;;;;;;;14.43;2.28;;;;;;;7.35;100.00;101223.84;6072381;23;20003;-95
2023/01/30 00:17:59;;;;;;;16.33;2.42;;;;;;;7.33;100.00;101238.44;6071071;23;20433;-95
2023/01/30 00:20:24;;;;;;;16.30;2.28;;;;;;;7.26;100.00;101220.66;6070958;23;20081;-95
2023/01/30 00:22:50;;;;;;;13.48;2.78;;;;;;;7.37;100.00;101228.03;6070626;23;19998;-94
2023/01/30 00:25:15;;;;;;;14.88;2.63;;;;;;;7.29;100.00;101210.31;6071540;23;20007;-95
2023/01/30 00:27:41;;;;;;;28.45;6.50;;;;;;;7.43;100.00;101212.41;6095152;23;20425;-94
2023/01/30 00:30:07;;;;;;;16.40;2.72;;;;;;;7.48;100.00;101222.53;6071063;23;20037;-95
2023/01/30 00:32:33;;;;;;;16.35;2.50;;;;;;;7.49;100.00;101203.69;6071118;23;20006;-95
2023/01/30 00:34:58;;;;;;;18.85;2.88;;;;;;;7.44;100.00;101203.00;6070657;23;20326;-95
2023/01/30 00:37:24;;;;;;;16.00;2.10;;;;;;;7.40;100.00;101203.97;6070950;23;20007;-94
2023/01/30 00:39:49;;;;;;;19.40;2.60;;;;;;;7.34;100.00;101196.47;6069348;23;20010;-94
2023/01/30 00:47:43;;;;;;;14.48;2.42;;;;;;;7.34;100.00;101184.47;6096170;23;20404;-95
2023/01/30 00:50:09;;;;;;;24.17;3.85;;;;;;;7.35;100.00;101177.63;6070563;23;20016;-95
2023/01/30 00:52:34;;;;;;;15.13;3.15;;;;;;;7.37;100.00;101181.81;6070314;23;20003;-96
2023/01/30 00:55:00;;;;;;;20.70;2.88;;;;;;;7.31;100.00;101168.31;6070775;23;20054;-95
2023/01/30 00:57:25;;;;;;;16.13;2.22;;;;;;;7.41;100.00;101190.25;6071119;23;20017;-94
2023/01/30 00:59:51;;;;;;;17.00;3.80;;;;;;;7.40;100.00;101170.59;6070787;23;20438;-94
2023/01/30 01:02:16;;;;;;;15.25;3.20;;;;;;;7.49;100.00;101168.56;6070714;23;20026;-95
2023/01/30 01:04:42;;;;;;;25.67;4.78;;;;;;;7.52;100.00;101175.34;6070350;23;20417;-95
2023/01/30 01:07:09;;;;;;;18.15;4.80;;;;;;;7.61;100.00;101180.19;6070452;23;20061;-94
2023/01/30 01:09:34;;;;;;;16.45;2.83;;;;;;;7.50;100.00;101164.25;6070245;23;20007;-95
2023/01/30 01:12:00;;;;;;;18.83;2.53;;;;;;;7.58;100.00;101167.41;6071109;23;20454;-94
2023/01/30 01:14:26;;;;;;;15.20;2.30;;;;;;;7.55;100.00;101164.94;6070667;23;20041;-95
2023/01/30 01:16:51;;;;;;;19.48;2.67;;;;;;;7.53;100.00;101150.47;6070168;23;20089;-95
2023/01/30 01:19:17;;;;;;;20.85;4.10;;;;;;;7.65;100.00;101171.44;6070700;23;20022;-95
2023/01/30 01:21:43;;;;;;;12.63;3.03;;;;;;;7.69;100.00;101162.75;6070679;23;20093;-95
2023/01/30 01:24:11;;;;;;;18.10;3.30;;;;;;;7.62;100.00;101145.88;6070640;23;20006;-95
2023/01/30 01:26:37;;;;;;;10.25;2.35;;;;;;;7.66;100.00;101147.47;6070692;23;20014;-96
2023/01/30 01:29:02;;;;;;;20.85;2.70;;;;;;;7.67;100.00;101149.13;6070271;23;20070;-95
2023/01/30 01:31:28;;;;;;;19.17;2.33;;;;;;;7.64;100.00;101156.09;6070036;23;20018;-95
2023/01/30 01:33:53;;;;;;;14.85;3.10;;;;;;;7.57;100.00;101132.34;6070548;23;20006;-94
2023/01/30 01:36:19;;;;;;;9.73;2.33;;;;;;;7.62;100.00;101145.88;6070136;23;20013;-94
2023/01/30 01:38:45;;;;;;;11.60;2.30;;;;;;;7.55;100.00;101131.56;6070009;23;20003;-94
2023/01/30 01:41:12;;;;;;;12.63;2.05;;;;;;;7.63;100.00;101147.56;6069706;23;20006;-95
2023/01/30 01:44:03;;;;;;;15.52;2.17;;;;;;;7.68;100.00;101144.81;6070396;23;20073;-94
2023/01/30 01:46:35;;;;;;;12.68;2.72;;;;;;;7.58;100.00;101138.31;6069810;23;20006;-95
2023/01/30 01:49:06;;;;;;;13.73;2.78;;;;;;;7.84;100.00;101160.56;6070236;23;20014;-94
2023/01/30 01:51:39;;;;;;;25.25;3.47;;;;;;;7.74;100.00;101139.47;6070351;23;20009;-94
2023/01/30 01:54:13;;;;;;;19.33;4.05;;;;;;;7.72;100.00;101144.66;6071201;23;20101;-95
2023/01/30 01:56:42;;;;;;;23.25;3.65;;;;;;;7.49;100.00;101118.94;6071415;23;20038;-94
2023/01/30 01:59:32;;;;;;;18.45;3.15;;;;;;;7.61;100.00;101135.66;6072038;23;20003;-94
2023/01/30 02:02:02;;;;;;;15.02;3.60;;;;;;;7.53;100.00;101125.63;6071911;23;20029;-95
2023/01/30 02:07:16;;;;;;;17.30;2.97;;;;;;;7.60;100.00;101132.22;6097403;23;20377;-94
2023/01/30 02:09:42;;;;;;;23.73;3.85;;;;;;;7.53;100.00;101119.66;6072254;23;20095;-95
2023/01/30 02:12:10;;;;;;;18.77;3.83;;;;;;;7.49;100.00;101136.91;6071772;23;20041;-94
2023/01/30 02:14:36;;;;;;;23.30;4.55;;;;;;;7.63;100.00;101141.56;6072045;23;20089;-95
2023/01/30 02:17:02;;;;;;;17.35;3.80;;;;;;;7.52;100.00;101129.09;6072390;23;20321;-94
2023/01/30 02:19:48;;;;;;;17.02;4.63;;;;;;;7.70;100.00;101143.88;6072499;23;20212;-94
2023/01/30 02:22:49;;;;;;;25.05;6.22;;;;;;;7.40;100.00;101108.97;6072278;23;20247;-94
2023/01/30 02:25:51;;;;;;;19.40;4.28;;;;;;;7.70;100.00;101149.00;5985774;23;20098;-95
2023/01/30 02:28:43;;;;;;;28.42;8.70;;;;;;;7.58;100.00;101128.88;6072413;23;20010;-95
2023/01/30 02:31:26;;;;;;;13.25;4.13;;;;;;;7.74;100.00;101161.78;6072209;23;20010;-95
2023/01/30 02:34:22;;;;;;;24.15;5.93;;;;;;;7.75;100.00;101163.44;6072049;23;20026;-95
2023/01/30 02:37:07;;;;;;;23.55;5.72;;;;;;;7.53;100.00;101125.63;6075221;23;20010;-95
2023/01/30 02:39:51;;;;;;;23.55;5.90;;;;;;;7.66;100.00;101152.59;6072886;23;20015;-93
2023/01/30 02:42:33;;;;;;;22.15;7.22;;;;;;;7.49;100.00;101126.63;6071290;23;20044;-95
2023/01/30 02:45:25;;;;;;;23.35;7.28;;;;;;;7.37;100.00;101129.63;6070734;23;20033;-96
2023/01/30 02:47:59;;;;;;;20.40;6.18;;;;;;;7.36;100.00;101117.66;6070962;23;20389;-94
2023/01/30 02:50:31;;;;;;;23.55;7.10;;;;;;;7.22;100.00;101131.78;6071096;23;20089;-95
2023/01/30 02:52:57;;;;;;;22.98;6.72;;;;;;;7.06;100.00;101120.31;6071468;23;20006;-95
2023/01/30 02:55:26;;;;;;;19.60;6.78;;;;;;;7.08;100.00;101111.69;6070612;23;20006;-95
2023/01/30 02:57:52;;;;;;;26.55;6.60;;;;;;;7.14;100.00;101133.75;6071422;23;20018;-95
2023/01/30 03:00:41;;;;;;;22.80;6.93;;;;;;;7.21;100.00;101131.81;6070848;23;20353;-95
2023/01/30 03:03:21;;;;;;;25.33;7.82;;;;;;;7.15;100.00;101124.34;6069898;23;20026;-95
2023/01/30 03:06:14;;;;;;;24.63;7.35;;;;;;;7.25;100.00;101147.09;6071066;23;20445;-94
2023/01/30 03:09:02;;;;;;;34.92;8.07;;;;;;;7.26;100.00;101160.75;6071023;23;20456;-94
2023/01/30 03:12:00;;;;;;;32.60;8.52;;;;;;;7.20;100.00;101159.25;6070266;23;20081;-94
2023/01/30 03:14:32;;;;;;;25.70;8.05;;;;;;;7.14;100.00;101149.16;6036058;23;20034;-95
2023/01/30 03:16:59;;;;;;;33.47;9.73;;;;;;;7.02;100.00;101154.66;6070860;23;20426;-95
2023/01/30 03:19:28;;;;;;;37.10;9.27;;;;;;;7.08;100.00;101145.06;6070998;23;20006;-94
2023/01/30 03:21:53;;;;;;;40.78;9.13;;;;;;;7.12;100.00;101135.56;6071159;23;19998;-94
2023/01/30 03:24:19;;;;;;;37.95;8.55;;;;;;;7.14;100.00;101158.59;6070989;23;20002;-95
2023/01/30 03:26:51;;;;;;;29.45;8.95;;;;;;;7.12;100.00;101148.38;6070219;23;20002;-94
2023/01/30 03:29:16;;;;;;;32.65;8.70;;;;;;;6.97;100.00;101146.28;6096010;23;20007;-94
2023/01/30 03:31:42;;;;;;;31.35;9.32;;;;;;;7.05;100.00;101139.19;6069505;23;20053;-95
2023/01/30 03:34:07;;;;;;;34.88;9.07;;;;;;;7.02;100.00;101139.28;6070812;23;20018;-95
2023/01/30 03:36:33;;;;;;;31.80;9.07;;;;;;;7.23;100.00;101154.00;6072207;23;20425;-95
2023/01/30 03:38:59;;;;;;;30.52;8.52;;;;;;;7.11;100.00;101144.13;6071061;23;20074;-95
2023/01/30 03:41:24;;;;;;;31.35;9.90;;;;;;;7.04;100.00;101143.47;6095513;23;20058;-94
2023/01/30 03:43:50;;;;;;;37.45;9.07;;;;;;;7.10;100.00;101157.84;6071658;23;20033;-94
2023/01/30 03:46:15;;;;;;;33.63;8.48;;;;;;;7.03;100.00;101138.41;6070292;23;20076;-95
2023/01/30 03:48:41;;;;;;;40.80;9.68;;;;;;;7.02;100.00;101145.28;6071295;23;20503;-95
2023/01/30 03:51:06;;;;;;;29.42;9.68;;;;;;;7.05;100.00;101172.56;6071259;23;20002;-95
2023/01/30 03:53:32;;;;;;;48.72;10.57;;;;;;;7.14;100.00;101169.69;6071319;23;20006;-95
2023/01/30 03:55:57;;;;;;;38.38;9.40;;;;;;;6.99;100.00;101159.91;6071595;23;20025;-95
2023/01/30 03:58:23;;;;;;;40.83;9.50;;;;;;;7.09;100.00;101166.44;6071418;23;20006;-96
2023/01/30 04:00:48;;;;;;;23.00;7.55;;;;;;;7.14;100.00;101194.53;6071646;23;20006;-94
2023/01/30 04:03:14;;;;;;;37.85;8.77;;;;;;;7.12;100.00;101188.59;6070981;23;20056;-94
2023/01/30 04:05:42;;;;;;;29.27;8.45;;;;;;;7.10;100.00;101191.22;6071336;23;20003;-95
2023/01/30 04:08:08;;;;;;;31.25;8.38;;;;;;;7.08;100.00;101196.41;6071315;23;20014;-95
2023/01/30 04:10:34;;;;;;;30.20;8.40;;;;;;;7.01;100.00;101209.47;6071069;23;20156;-95
2023/01/30 04:12:59;;;;;;;27.98;7.57;;;;;;;6.85;100.00;101194.53;6070293;23;20050;-94
2023/01/30 04:15:25;;;;;;;38.40;9.38;;;;;;;6.65;100.00;101202.78;6071522;23;20065;-95
2023/01/30 04:17:50;;;;;;;20.08;6.30;;;;;;;6.64;100.00;101220.81;6071336;23;20386;-95
2023/01/30 04:20:16;;;;;;;33.35;8.50;;;;;;;6.67;100.00;101230.16;6071342;23;20318;-95
2023/01/30 04:22:41;;;;;;;22.83;7.63;;;;;;;6.36;100.00;101211.31;6070702;23;20044;-96
2023/01/30 04:25:07;;;;;;;23.63;6.50;;;;;;;6.09;100.00;101223.16;6070818;23;20436;-95
2023/01/30 04:27:33;;;;;;;23.20;6.78;;;;;;;6.08;100.00;101225.78;6071219;23;20476;-96
2023/01/30 04:29:58;;;;;;;25.15;6.57;;;;;;;6.05;100.00;101228.38;6071432;23;20017;-94
2023/01/30 04:32:25;;;;;;;22.90;7.18;;;;;;;6.05;100.00;101230.94;6071478;23;20002;-94
2023/01/30 04:34:51;;;;;;;26.05;6.40;;;;;;;6.27;100.00;101270.56;6071996;23;20059;-94
2023/01/30 04:37:16;;;;;;;21.65;5.45;;;;;;;6.25;100.00;101243.28;6096232;23;20014;-93
2023/01/30 04:39:42;;;;;;;15.45;5.57;;;;;;;6.43;100.00;101273.53;6071290;23;20009;-95
2023/01/30 04:42:07;;;;;;;23.23;5.38;;;;;;;6.37;100.00;101248.06;6071985;23;20010;-94
2023/01/30 04:44:33;;;;;;;24.02;6.25;;;;;;;6.63;100.00;101255.03;6072118;23;20002;-94
2023/01/30 04:46:58;;;;;;;13.82;3.50;;;;;;;6.59;100.00;101271.41;6071701;23;20065;-94
2023/01/30 04:49:24;;;;;;;17.17;2.97;;;;;;;6.55;100.00;101293.72;6071085;23;20045;-94
2023/01/30 04:51:49;;;;;;;18.95;2.80;;;;;;;6.41;100.00;101301.78;6071406;23;20007;-94
2023/01/30 04:54:15;;;;;;;13.13;3.15;;;;;;;6.18;100.00;101278.47;6071373;23;20010;-94
2023/01/30 04:56:40;;;;;;;12.38;2.88;;;;;;;6.17;100.00;101297.31;6070739;23;20010;-95
2023/01/30 04:59:06;;;;;;;21.50;3.58;;;;;;;5.98;100.00;101284.09;6071135;23;20007;-95
2023/01/30 05:01:34;;;;;;;18.15;3.17;;;;;;;5.63;100.00;101269.53;6071186;23;20489;-95
2023/01/30 05:04:00;;;;;;;15.88;3.05;;;;;;;5.81;100.00;101307.53;6070657;23;20014;-95
2023/01/30 05:06:26;;;;;;;16.45;2.28;;;;;;;5.67;99.71;101281.41;6070935;23;20109;-95
2023/01/30 05:08:53;;;;;;;15.90;2.80;;;;;;;5.48;100.00;101271.56;6071075;23;20435;-95
2023/01/30 05:11:20;;;;;;;16.02;2.55;;;;;;;5.40;98.30;101278.59;6070350;23;20011;-95
2023/01/30 05:13:45;;;;;;;13.73;2.58;;;;;;;5.29;98.57;101271.16;6070941;23;19999;-95
2023/01/30 05:16:13;;;;;;;18.35;2.72;;;;;;;5.24;99.99;101315.63;6071075;23;20011;-96
2023/01/30 05:18:38;;;;;;;18.15;3.70;;;;;;;4.87;99.50;101283.97;6070820;23;20007;-96
2023/01/30 05:21:19;;;;;;;15.52;2.35;;;;;;;4.97;98.25;101299.97;6070822;23;20081;-95
2023/01/30 05:23:44;;;;;;;19.88;2.72;;;;;;;4.91;97.49;101303.50;6071605;23;20026;-96
2023/01/30 05:26:11;;;;;;;18.40;2.35;;;;;;;4.83;98.67;101307.06;6070740;23;20429;-95
2023/01/30 05:28:37;;;;;;;12.13;2.35;;;;;;;4.68;99.73;101324.44;6071443;23;19998;-95
2023/01/30 05:31:10;;;;;;;26.27;3.45;;;;;;;4.66;98.42;101305.72;6072709;23;20006;-96
2023/01/30 05:33:36;;;;;;;17.40;3.05;;;;;;;4.53;100.00;101323.84;6072623;23;20010;-96
2023/01/30 05:36:02;;;;;;;17.58;2.70;;;;;;;4.26;100.00;101316.63;6072812;23;20045;-95
2023/01/30 05:38:28;;;;;;;12.98;2.55;;;;;;;4.25;100.00;101337.97;6072312;23;20006;-95
2023/01/30 05:41:01;;;;;;;23.33;2.50;;;;;;;4.33;100.00;101357.44;6073174;23;20445;-95
2023/01/30 05:43:27;;;;;;;17.88;2.65;;;;;;;4.16;100.00;101345.78;6072934;23;20017;-95
2023/01/30 05:45:54;;;;;;;22.48;4.88;;;;;;;4.21;100.00;101343.97;6072421;23;20332;-95
2023/01/30 05:48:20;;;;;;;14.45;2.72;;;;;;;4.25;100.00;101342.25;6072267;23;20500;-96
2023/01/30 05:50:46;;;;;;;21.20;2.63;;;;;;;4.20;99.27;101331.25;6072481;23;20090;-96
2023/01/30 05:53:12;;;;;;;16.00;2.50;;;;;;;4.23;99.66;101349.09;6072607;23;20006;-95
2023/01/30 05:55:38;;;;;;;15.07;2.83;;;;;;;4.31;96.12;101333.63;6072021;23;20007;-96
2023/01/30 05:58:03;;;;;;;23.35;5.75;;;;;;;4.38;95.11;101341.16;6072354;23;20085;-95
2023/01/30 06:00:29;;;;;;;20.38;2.60;;;;;;;4.36;94.91;101362.50;6096555;23;20551;-95
2023/01/30 06:02:54;;;;;;;27.85;3.03;;;;;;;4.30;93.76;101343.00;6072396;23;20385;-95
2023/01/30 06:05:20;;;;;;;17.67;3.10;;;;;;;4.25;94.46;101355.00;6072278;23;20054;-95
2023/01/30 06:07:45;;;;;;;24.63;3.03;;;;;;;4.28;93.30;101363.47;6072458;23;20053;-95
2023/01/30 06:10:11;;;;;;;28.33;2.85;;;;;;;4.31;92.54;101375.34;6071763;23;20006;-96
2023/01/30 06:12:36;;;;;;;10.38;2.10;;;;;;;4.01;94.30;101366.47;6072109;23;20013;-96
2023/01/30 06:15:02;;;;;;;22.95;4.00;;;;;;;4.17;94.01;101387.50;6072243;23;20061;-95
2023/01/30 06:17:28;;;;;;;16.58;2.17;;;;;;;4.21;94.59;101407.88;6072602;23;20480;-95
2023/01/30 06:19:53;;;;;;;23.13;3.33;;;;;;;4.10;94.47;101393.56;6096730;23;20013;-95
2023/01/30 06:22:19;;;;;;;22.55;2.90;;;;;;;4.03;93.97;101388.56;6072550;23;20030;-95
2023/01/30 06:24:44;;;;;;;16.08;1.95;;;;;;;4.23;94.91;101393.34;6072273;23;20009;-95
2023/01/30 06:27:10;;;;;;;19.70;3.03;;;;;;;4.34;95.26;101390.66;6071876;23;20014;-95
2023/01/30 06:29:35;;;;;;;12.50;2.50;;;;;;;4.31;93.00;101384.72;6072295;23;20014;-95
2023/01/30 06:32:01;;;;;;;16.05;2.83;;;;;;;4.45;92.06;101408.34;6073067;23;20005;-96
2023/01/30 06:34:26;;;;;;;24.95;3.88;;;;;;;4.62;93.07;101418.31;6072581;23;20107;-96
2023/01/30 06:36:52;;;;;;;17.70;2.95;;;;;;;4.68;89.35;101405.38;6072271;23;20337;-95
2023/01/30 06:39:17;;;;;;;18.13;2.38;;;;;;;4.63;89.32;101397.81;6071331;23;20010;-96
2023/01/30 06:41:43;;;;;;;14.32;1.77;;;;;;;4.66;90.97;101418.22;6072057;23;20006;-95
2023/01/30 06:44:09;;;;;;;13.95;2.40;;;;;;;4.79;91.20;101433.34;6072325;23;20057;-95
2023/01/30 06:46:34;;;;;;;25.05;3.03;;;;;;;4.86;90.75;101445.16;6071945;23;20010;-95
2023/01/30 06:49:00;;;;;;;18.33;2.35;;;;;;;4.81;89.83;101441.84;6096002;23;20011;-96
2023/01/30 06:51:26;;;;;;;20.45;3.88;;;;;;;4.84;90.90;101441.78;6072092;23;20006;-96
2023/01/30 06:53:52;;;;;;;10.40;1.90;;;;;;;4.67;90.48;101422.47;6071914;23;20096;-96
2023/01/30 06:56:18;;;;;;;10.38;1.90;;;;;;;4.81;91.16;101449.53;6071779;23;20014;-96
2023/01/30 06:58:44;;;;;;;21.75;3.17;;;;;;;4.62;90.37;101424.25;6071089;23;20025;-95
2023/01/30 07:01:10;;;;;;;16.98;2.45;;;;;;;4.66;91.43;101448.91;6071324;23;20006;-95
2023/01/30 07:03:35;;;;;;;17.10;2.92;;;;;;;4.49;91.27;101425.34;6071344;23;20005;-96
2023/01/30 07:06:01;;;;;;;15.60;3.00;;;;;;;4.40;91.57;101425.47;6072755;23;20013;-94
2023/01/30 07:08:26;;;;;;;18.70;3.75;;;;;;;4.48;91.50;101428.75;6073630;23;20011;-95
2023/01/30 07:10:52;;;;;;;15.50;2.05;;;;;;;4.22;92.48;101427.47;6071483;23;20006;-95
2023/01/30 07:13:17;;;;;;;14.05;2.15;;;;;;;4.46;91.79;101446.69;6070956;23;20010;-95
2023/01/30 07:15:44;;;;;;;10.07;2.15;;;;;;;4.42;92.59;101454.41;6071851;23;20378;-95
2023/01/30 07:18:09;;;;;;;19.75;2.50;;;;;;;4.48;93.02;101469.66;6071720;23;20017;-95
2023/01/30 07:20:35;;;;;;;11.98;2.38;;;;;;;4.35;93.36;101457.94;6072051;23;20003;-94
2023/01/30 07:23:01;;;;;;;15.02;2.10;;;;;;;4.24;93.52;101455.53;6071352;23;20070;-95
2023/01/30 07:25:27;;;;;;;23.48;3.30;;;;;;;4.25;93.13;101473.41;6071824;23;20002;-94
2023/01/30 07:27:56;;;;;;;13.40;2.22;;;;;;;4.40;94.38;101502.16;6070942;23;20452;-95
2023/01/30 07:30:22;;;;;;;14.82;2.30;;;;;;;4.23;93.42;101487.06;6070847;23;20007;-94
2023/01/30 07:32:56;;;;;;;15.55;2.33;;;;;;;4.21;94.05;101492.19;6071243;23;20026;-95
2023/01/30 07:35:23;;;;;;;13.48;2.45;;;;;;;4.10;94.23;101488.97;6076476;23;20002;-95
2023/01/30 07:37:50;;;;;;;11.27;2.47;;;;;;;4.03;95.72;101520.56;6078187;23;20010;-94
2023/01/30 07:40:16;;;;;;;13.43;2.38;;;;;;;3.79;97.80;101497.00;6081823;23;20003;-94
2023/01/30 07:42:42;;;;;;;12.77;1.90;;;;;;;3.58;98.68;101494.69;6071680;23;20010;-94
2023/01/30 07:45:08;;;;;;;16.48;2.38;;;;;;;3.62;98.25;101506.56;6097003;23;20012;-95
2023/01/30 07:47:34;;;;;;;19.80;2.90;;;;;;;3.57;99.02;101493.03;6071007;23;20429;-95
2023/01/30 07:49:59;;;;;;;9.23;1.95;;;;;;;3.47;99.31;101492.28;6071669;23;20148;-94
2023/01/30 07:52:25;;;;;;;11.00;1.70;;;;;;;3.43;99.27;101490.63;6094945;23;20006;-95
2023/01/30 07:54:50;;;;;;;15.90;2.42;;;;;;;3.30;99.55;101489.06;6072323;23;20061;-94
2023/01/30 07:57:16;;;;;;;18.05;2.53;;;;;;;3.39;99.68;101517.91;6071486;23;20089;-94
2023/01/30 07:59:41;;;;;;;10.48;1.25;;;;;;;3.15;99.88;101501.13;6071170;23;20006;-95
2023/01/30 08:02:10;;;;;;;19.90;2.90;;;;;;;3.23;100.00;101529.09;6071170;23;20566;-95
2023/01/30 08:04:37;;;;;;;9.00;1.60;;;;;;;3.07;100.00;101530.09;6071126;23;20422;-94
2023/01/30 08:07:02;;;;;;;16.80;1.70;;;;;;;2.87;100.00;101505.59;6070975;23;20504;-95
2023/01/30 08:09:28;;;;;;;11.18;1.88;;;;;;;2.87;100.00;101512.41;6071394;23;20010;-95
2023/01/30 08:11:53;;;;;;;12.45;2.10;;;;;;;2.89;100.00;101521.75;6071648;23;19999;-94
2023/01/30 08:14:19;;;;;;;13.90;2.28;;;;;;;2.75;100.00;101515.91;6070814;23;20007;-94
2023/01/30 08:16:44;;;;;;;24.00;3.75;;;;;;;2.82;100.00;101512.44;6071103;23;20318;-94
2023/01/30 08:19:10;;;;;;;15.25;2.33;;;;;;;2.97;100.00;101545.47;6071586;23;20006;-95
2023/01/30 08:21:35;;;;;;;17.92;2.53;;;;;;;3.12;100.00;101541.97;6071307;23;20407;-95
2023/01/30 08:24:01;;;;;;;13.20;2.30;;;;;;;3.25;100.00;101557.16;6071279;23;20038;-95
2023/01/30 08:26:26;;;;;;;15.77;2.38;;;;;;;3.20;100.00;101526.59;6070901;23;20385;-95
2023/01/30 08:28:52;;;;;;;18.52;1.88;;;;;;;3.29;100.00;101529.06;6071083;23;20026;-94
2023/01/30 08:31:17;;;;;;;13.75;2.53;;;;;;;3.47;99.50;101542.50;6070374;23;20003;-94
2023/01/30 08:33:43;;;;;;;13.93;1.70;;;;;;;3.65;98.70;101562.69;6071131;23;20010;-94
2023/01/30 08:36:09;;;;;;;11.07;1.92;;;;;;;3.67;98.36;101555.88;6071089;23;20097;-95
2023/01/30 08:38:34;;;;;;;12.48;1.85;;;;;;;3.79;97.61;101549.78;6073606;23;20062;-95
2023/01/30 08:41:02;;;;;;;8.13;1.65;;;;;;;3.90;97.27;101547.94;6096640;23;20006;-95
2023/01/30 08:43:28;;;;;;;16.75;3.03;;;;;;;4.04;95.09;101542.66;6070907;23;20029;-96
2023/01/30 08:45:54;;;;;;;12.02;2.38;;;;;;;4.37;93.58;101568.66;6070379;23;20034;-95
2023/01/30 08:48:20;;;;;;;14.82;2.08;;;;;;;4.48;92.57;101561.69;6070942;23;20106;-95
2023/01/30 08:50:45;;;;;;;13.05;1.92;;;;;;;4.70;91.54;101568.16;6071021;23;20048;-95
2023/01/30 08:53:11;;;;;;;17.25;2.67;;;;;;;4.75;90.55;101555.31;6070685;23;20007;-94
2023/01/30 08:55:36;;;;;;;21.15;2.70;;;;;;;4.74;87.96;101563.03;6070605;23;20009;-95
2023/01/30 08:58:02;;;;;;;20.50;2.33;;;;;;;4.95;87.91;101557.56;6094694;23;20089;-95
2023/01/30 09:00:28;;;;;;;11.20;3.30;;;;;;;5.21;87.27;101579.31;6070819;23;20101;-95
2023/01/30 09:02:57;;;;;;;15.20;3.10;;;;;;;5.52;86.12;101577.91;6071717;23;20062;-95
2023/01/30 09:05:23;;;;;;;19.52;2.70;;;;;;;5.54;85.62;101553.13;6073050;23;20041;-95
2023/01/30 09:07:49;;;;;;;21.95;2.60;;;;;;;5.70;83.75;101563.91;6071712;23;20042;-95
2023/01/30 09:10:15;;;;;;;15.52;2.22;;;;;;;6.10;83.66;101573.41;6072175;23;20090;-95
2023/01/30 09:12:41;;;;;;;15.25;2.42;;;;;;;6.48;83.27;101573.47;6072437;23;20003;-95
2023/01/30 09:15:07;;;;;;;15.85;2.10;;;;;;;6.77;80.24;101573.63;6072104;23;20526;-94
2023/01/30 09:17:33;;;;;;;17.60;2.97;;;;;;;7.08;77.51;101580.63;6070853;23;20038;-95
